Olathe, Colorado
Current Conditions -  °F | °C
As of 6:53 AM on Sunday 21 Dec 2014 (Local Time) from KMTJ Reporting Station
Overcast Overcast  
Wind Chill: 29°   Ceiling: 6500
Heat Index: 29°   Visibility: 9mi
Dew Point: 27°   Wind: 3mph
Humidity: 92%   Direction: 170°S
Pressure: 30.07"   Gusts: NA
Location:  38.6°N, 107.98°W
Report Text: KMTJ 211353Z AUTO 17003KT 9SM OVC065 M02/M03 A3007 RMK AO2 SLP183 T10171028
Loading
Personal Weather Stations






























Interactive Weather Map New forecast layout! Learn more

10-Day Weather Forecast

Advertisements
Track Severe Weather on mobile